sensor_id;sensor_type;location;lat;lon;timestamp;P1;durP1;ratioP1;P2;durP2;ratioP2
19782;SDS011;10051;40.294;-3.754;2023-04-01T00:00:21;16.58;;;2.97;;
19782;SDS011;10051;40.294;-3.754;2023-04-01T00:02:47;15.85;;;2.80;;
19782;SDS011;10051;40.294;-3.754;2023-04-01T00:05:13;15.73;;;2.75;;
19782;SDS011;10051;40.294;-3.754;2023-04-01T00:07:39;14.02;;;2.90;;
19782;SDS011;10051;40.294;-3.754;2023-04-01T00:10:06;16.15;;;2.65;;
19782;SDS011;10051;40.294;-3.754;2023-04-01T00:12:35;13.07;;;2.75;;
19782;SDS011;10051;40.294;-3.754;2023-04-01T00:15:02;13.85;;;3.00;;
19782;SDS011;10051;40.294;-3.754;2023-04-01T00:17:28;15.68;;;2.90;;
19782;SDS011;10051;40.294;-3.754;2023-04-01T00:19:55;13.60;;;2.33;;
19782;SDS011;10051;40.294;-3.754;2023-04-01T00:22:21;12.63;;;2.50;;
19782;SDS011;10051;40.294;-3.754;2023-04-01T00:24:48;15.27;;;2.60;;
19782;SDS011;10051;40.294;-3.754;2023-04-01T00:27:14;13.57;;;2.92;;
19782;SDS011;10051;40.294;-3.754;2023-04-01T00:29:43;12.55;;;2.75;;
19782;SDS011;10051;40.294;-3.754;2023-04-01T00:32:13;15.85;;;2.85;;
19782;SDS011;10051;40.294;-3.754;2023-04-01T00:34:39;16.50;;;3.03;;
19782;SDS011;10051;40.294;-3.754;2023-04-01T00:37:05;13.18;;;2.53;;
19782;SDS011;10051;40.294;-3.754;2023-04-01T00:39:31;17.00;;;2.72;;
19782;SDS011;10051;40.294;-3.754;2023-04-01T00:41:58;13.63;;;2.53;;
19782;SDS011;10051;40.294;-3.754;2023-04-01T00:44:26;9.82;;;2.50;;
19782;SDS011;10051;40.294;-3.754;2023-04-01T00:46:53;17.00;;;2.90;;
19782;SDS011;10051;40.294;-3.754;2023-04-01T00:49:20;16.60;;;3.10;;
19782;SDS011;10051;40.294;-3.754;2023-04-01T00:51:51;13.38;;;2.38;;
19782;SDS011;10051;40.294;-3.754;2023-04-01T00:54:19;12.07;;;2.67;;
19782;SDS011;10051;40.294;-3.754;2023-04-01T00:59:23;11.57;;;2.70;;
19782;SDS011;10051;40.294;-3.754;2023-04-01T01:01:54;14.63;;;2.60;;
19782;SDS011;10051;40.294;-3.754;2023-04-01T01:04:21;16.40;;;2.95;;
19782;SDS011;10051;40.294;-3.754;2023-04-01T01:06:56;16.80;;;3.00;;
19782;SDS011;10051;40.294;-3.754;2023-04-01T01:12:39;12.65;;;2.45;;
19782;SDS011;10051;40.294;-3.754;2023-04-01T01:15:20;15.95;;;2.80;;
19782;SDS011;10051;40.294;-3.754;2023-04-01T01:21:16;14.55;;;2.83;;
19782;SDS011;10051;40.294;-3.754;2023-04-01T01:37:31;12.73;;;2.67;;
19782;SDS011;10051;40.294;-3.754;2023-04-01T01:39:59;16.38;;;2.92;;
19782;SDS011;10051;40.294;-3.754;2023-04-01T01:42:30;14.90;;;2.60;;
19782;SDS011;10051;40.294;-3.754;2023-04-01T01:45:00;12.55;;;2.78;;
19782;SDS011;10051;40.294;-3.754;2023-04-01T01:47:27;15.15;;;2.95;;
19782;SDS011;10051;40.294;-3.754;2023-04-01T01:49:55;15.18;;;3.15;;
19782;SDS011;10051;40.294;-3.754;2023-04-01T01:52:23;19.65;;;3.25;;
19782;SDS011;10051;40.294;-3.754;2023-04-01T01:54:53;14.90;;;2.65;;
19782;SDS011;10051;40.294;-3.754;2023-04-01T01:57:21;15.50;;;3.05;;
19782;SDS011;10051;40.294;-3.754;2023-04-01T02:00:06;13.93;;;2.97;;
19782;SDS011;10051;40.294;-3.754;2023-04-01T02:02:41;15.75;;;2.60;;
19782;SDS011;10051;40.294;-3.754;2023-04-01T02:05:10;14.10;;;2.75;;
19782;SDS011;10051;40.294;-3.754;2023-04-01T02:07:41;17.33;;;2.85;;
19782;SDS011;10051;40.294;-3.754;2023-04-01T02:10:12;16.73;;;2.72;;
19782;SDS011;10051;40.294;-3.754;2023-04-01T02:12:38;15.07;;;3.03;;
19782;SDS011;10051;40.294;-3.754;2023-04-01T02:15:08;16.25;;;2.47;;
19782;SDS011;10051;40.294;-3.754;2023-04-01T02:17:37;16.60;;;2.90;;
19782;SDS011;10051;40.294;-3.754;2023-04-01T02:20:12;16.02;;;2.85;;
19782;SDS011;10051;40.294;-3.754;2023-04-01T02:22:41;11.45;;;2.67;;
19782;SDS011;10051;40.294;-3.754;2023-04-01T02:25:45;17.13;;;2.67;;
19782;SDS011;10051;40.294;-3.754;2023-04-01T02:28:05;13.57;;;2.83;;
19782;SDS011;10051;40.294;-3.754;2023-04-01T02:30:34;15.02;;;2.90;;
19782;SDS011;10051;40.294;-3.754;2023-04-01T02:33:03;14.20;;;2.47;;
19782;SDS011;10051;40.294;-3.754;2023-04-01T02:35:32;18.40;;;2.97;;
19782;SDS011;10051;40.294;-3.754;2023-04-01T02:38:00;16.25;;;2.83;;
19782;SDS011;10051;40.294;-3.754;2023-04-01T02:40:27;16.00;;;2.95;;
19782;SDS011;10051;40.294;-3.754;2023-04-01T02:42:52;17.60;;;3.08;;
19782;SDS011;10051;40.294;-3.754;2023-04-01T02:45:18;14.77;;;3.60;;
19782;SDS011;10051;40.294;-3.754;2023-04-01T02:47:43;21.55;;;4.50;;
19782;SDS011;10051;40.294;-3.754;2023-04-01T02:50:09;15.75;;;3.50;;
19782;SDS011;10051;40.294;-3.754;2023-04-01T02:52:35;15.55;;;3.40;;
19782;SDS011;10051;40.294;-3.754;2023-04-01T02:55:01;14.80;;;3.05;;
19782;SDS011;10051;40.294;-3.754;2023-04-01T02:57:26;14.57;;;2.70;;
19782;SDS011;10051;40.294;-3.754;2023-04-01T02:59:55;14.55;;;2.80;;
19782;SDS011;10051;40.294;-3.754;2023-04-01T03:02:20;13.45;;;2.47;;
19782;SDS011;10051;40.294;-3.754;2023-04-01T03:04:46;14.40;;;2.58;;
19782;SDS011;10051;40.294;-3.754;2023-04-01T03:07:12;12.55;;;3.00;;
19782;SDS011;10051;40.294;-3.754;2023-04-01T03:09:38;14.38;;;3.05;;
19782;SDS011;10051;40.294;-3.754;2023-04-01T03:12:03;17.55;;;3.03;;
19782;SDS011;10051;40.294;-3.754;2023-04-01T03:14:29;17.40;;;2.63;;
19782;SDS011;10051;40.294;-3.754;2023-04-01T03:16:55;17.52;;;2.60;;
19782;SDS011;10051;40.294;-3.754;2023-04-01T03:19:20;14.38;;;3.17;;
19782;SDS011;10051;40.294;-3.754;2023-04-01T03:21:46;14.63;;;2.50;;
19782;SDS011;10051;40.294;-3.754;2023-04-01T03:24:12;16.13;;;2.95;;
19782;SDS011;10051;40.294;-3.754;2023-04-01T03:26:37;13.50;;;2.60;;
19782;SDS011;10051;40.294;-3.754;2023-04-01T03:29:04;14.65;;;2.70;;
19782;SDS011;10051;40.294;-3.754;2023-04-01T03:31:30;13.38;;;2.28;;
19782;SDS011;10051;40.294;-3.754;2023-04-01T03:33:56;14.05;;;2.75;;
19782;SDS011;10051;40.294;-3.754;2023-04-01T03:36:21;15.40;;;2.90;;
19782;SDS011;10051;40.294;-3.754;2023-04-01T03:38:47;11.75;;;2.58;;
19782;SDS011;10051;40.294;-3.754;2023-04-01T03:41:13;13.82;;;2.40;;
19782;SDS011;10051;40.294;-3.754;2023-04-01T03:43:40;12.32;;;2.30;;
19782;SDS011;10051;40.294;-3.754;2023-04-01T03:46:06;14.23;;;2.67;;
19782;SDS011;10051;40.294;-3.754;2023-04-01T03:48:31;10.95;;;2.42;;
19782;SDS011;10051;40.294;-3.754;2023-04-01T03:50:57;15.65;;;3.00;;
19782;SDS011;10051;40.294;-3.754;2023-04-01T03:53:23;13.80;;;2.85;;
19782;SDS011;10051;40.294;-3.754;2023-04-01T03:55:49;15.93;;;2.83;;
19782;SDS011;10051;40.294;-3.754;2023-04-01T03:58:16;12.40;;;2.65;;
19782;SDS011;10051;40.294;-3.754;2023-04-01T04:00:42;16.02;;;2.80;;
19782;SDS011;10051;40.294;-3.754;2023-04-01T04:03:07;14.52;;;2.55;;
19782;SDS011;10051;40.294;-3.754;2023-04-01T04:05:33;15.52;;;2.67;;
19782;SDS011;10051;40.294;-3.754;2023-04-01T04:07:59;8.10;;;2.10;;
19782;SDS011;10051;40.294;-3.754;2023-04-01T04:10:24;14.52;;;2.50;;
19782;SDS011;10051;40.294;-3.754;2023-04-01T04:12:50;12.00;;;2.50;;
19782;SDS011;10051;40.294;-3.754;2023-04-01T04:15:16;14.02;;;2.20;;
19782;SDS011;10051;40.294;-3.754;2023-04-01T04:17:43;11.77;;;2.22;;
19782;SDS011;10051;40.294;-3.754;2023-04-01T04:20:10;10.50;;;2.47;;
19782;SDS011;10051;40.294;-3.754;2023-04-01T04:22:36;14.63;;;2.70;;
19782;SDS011;10051;40.294;-3.754;2023-04-01T04:25:02;12.15;;;2.45;;
19782;SDS011;10051;40.294;-3.754;2023-04-01T04:27:28;15.05;;;2.28;;
19782;SDS011;10051;40.294;-3.754;2023-04-01T04:29:55;13.32;;;2.20;;
19782;SDS011;10051;40.294;-3.754;2023-04-01T04:32:20;12.98;;;2.45;;
19782;SDS011;10051;40.294;-3.754;2023-04-01T04:34:46;12.27;;;2.10;;
19782;SDS011;10051;40.294;-3.754;2023-04-01T04:37:11;12.07;;;2.08;;
19782;SDS011;10051;40.294;-3.754;2023-04-01T04:39:37;13.73;;;2.10;;
19782;SDS011;10051;40.294;-3.754;2023-04-01T04:42:02;14.52;;;2.40;;
19782;SDS011;10051;40.294;-3.754;2023-04-01T04:44:28;13.60;;;2.65;;
19782;SDS011;10051;40.294;-3.754;2023-04-01T04:46:53;13.82;;;2.50;;
19782;SDS011;10051;40.294;-3.754;2023-04-01T04:49:19;13.25;;;2.30;;
19782;SDS011;10051;40.294;-3.754;2023-04-01T04:51:47;14.48;;;2.55;;
19782;SDS011;10051;40.294;-3.754;2023-04-01T04:54:13;13.82;;;1.90;;
19782;SDS011;10051;40.294;-3.754;2023-04-01T04:56:38;14.82;;;2.33;;
19782;SDS011;10051;40.294;-3.754;2023-04-01T04:59:04;11.00;;;2.40;;
19782;SDS011;10051;40.294;-3.754;2023-04-01T05:01:30;11.15;;;2.13;;
19782;SDS011;10051;40.294;-3.754;2023-04-01T05:03:56;16.38;;;2.38;;
19782;SDS011;10051;40.294;-3.754;2023-04-01T05:06:21;10.35;;;2.17;;
19782;SDS011;10051;40.294;-3.754;2023-04-01T05:08:47;14.48;;;2.35;;
19782;SDS011;10051;40.294;-3.754;2023-04-01T05:11:14;13.88;;;2.40;;
19782;SDS011;10051;40.294;-3.754;2023-04-01T05:13:42;12.95;;;2.38;;
19782;SDS011;10051;40.294;-3.754;2023-04-01T05:16:09;12.93;;;2.20;;
19782;SDS011;10051;40.294;-3.754;2023-04-01T05:18:39;11.52;;;2.22;;
19782;SDS011;10051;40.294;-3.754;2023-04-01T05:21:06;12.27;;;2.05;;
19782;SDS011;10051;40.294;-3.754;2023-04-01T05:23:33;13.43;;;2.53;;
19782;SDS011;10051;40.294;-3.754;2023-04-01T05:26:02;13.63;;;2.45;;
19782;SDS011;10051;40.294;-3.754;2023-04-01T05:28:28;17.42;;;2.67;;
19782;SDS011;10051;40.294;-3.754;2023-04-01T05:30:54;13.77;;;2.42;;
19782;SDS011;10051;40.294;-3.754;2023-04-01T05:33:19;12.55;;;2.08;;
19782;SDS011;10051;40.294;-3.754;2023-04-01T05:35:45;11.45;;;2.50;;
19782;SDS011;10051;40.294;-3.754;2023-04-01T05:38:10;15.90;;;2.22;;
19782;SDS011;10051;40.294;-3.754;2023-04-01T05:40:36;11.27;;;2.25;;
19782;SDS011;10051;40.294;-3.754;2023-04-01T05:43:01;12.68;;;2.00;;
19782;SDS011;10051;40.294;-3.754;2023-04-01T05:45:27;10.82;;;2.10;;
19782;SDS011;10051;40.294;-3.754;2023-04-01T05:47:53;12.57;;;2.10;;
19782;SDS011;10051;40.294;-3.754;2023-04-01T05:50:18;11.35;;;2.20;;
19782;SDS011;10051;40.294;-3.754;2023-04-01T05:52:45;11.23;;;2.47;;
19782;SDS011;10051;40.294;-3.754;2023-04-01T05:55:10;10.48;;;2.20;;
19782;SDS011;10051;40.294;-3.754;2023-04-01T05:57:36;17.05;;;2.38;;
19782;SDS011;10051;40.294;-3.754;2023-04-01T06:00:02;10.00;;;2.22;;
19782;SDS011;10051;40.294;-3.754;2023-04-01T06:02:29;13.10;;;2.22;;
19782;SDS011;10051;40.294;-3.754;2023-04-01T06:04:59;12.65;;;2.20;;
19782;SDS011;10051;40.294;-3.754;2023-04-01T06:07:36;10.57;;;2.50;;
19782;SDS011;10051;40.294;-3.754;2023-04-01T06:10:05;11.05;;;2.03;;
19782;SDS011;10051;40.294;-3.754;2023-04-01T06:15:49;9.98;;;1.90;;
19782;SDS011;10051;40.294;-3.754;2023-04-01T06:56:36;9.43;;;2.03;;
19782;SDS011;10051;40.294;-3.754;2023-04-01T06:59:06;9.20;;;1.90;;
19782;SDS011;10051;40.294;-3.754;2023-04-01T07:01:41;10.05;;;2.08;;
19782;SDS011;10051;40.294;-3.754;2023-04-01T07:04:29;9.25;;;2.05;;
19782;SDS011;10051;40.294;-3.754;2023-04-01T07:06:58;9.48;;;1.88;;
19782;SDS011;10051;40.294;-3.754;2023-04-01T07:09:32;11.02;;;1.75;;
19782;SDS011;10051;40.294;-3.754;2023-04-01T07:13:06;10.57;;;2.10;;
19782;SDS011;10051;40.294;-3.754;2023-04-01T07:15:19;10.82;;;2.08;;
19782;SDS011;10051;40.294;-3.754;2023-04-01T07:18:02;9.05;;;2.20;;
19782;SDS011;10051;40.294;-3.754;2023-04-01T07:20:35;7.45;;;1.83;;
19782;SDS011;10051;40.294;-3.754;2023-04-01T07:23:04;11.07;;;2.15;;
19782;SDS011;10051;40.294;-3.754;2023-04-01T07:25:48;9.57;;;1.90;;
19782;SDS011;10051;40.294;-3.754;2023-04-01T07:28:17;9.82;;;2.00;;
19782;SDS011;10051;40.294;-3.754;2023-04-01T07:36:35;9.27;;;1.85;;
19782;SDS011;10051;40.294;-3.754;2023-04-01T07:42:01;12.10;;;1.52;;
19782;SDS011;10051;40.294;-3.754;2023-04-01T07:44:44;8.50;;;1.85;;
19782;SDS011;10051;40.294;-3.754;2023-04-01T07:50:28;10.23;;;2.15;;
19782;SDS011;10051;40.294;-3.754;2023-04-01T07:53:03;13.18;;;1.70;;
19782;SDS011;10051;40.294;-3.754;2023-04-01T08:17:31;10.38;;;1.80;;
19782;SDS011;10051;40.294;-3.754;2023-04-01T08:20:21;11.20;;;2.05;;
19782;SDS011;10051;40.294;-3.754;2023-04-01T08:22:56;8.57;;;1.90;;
19782;SDS011;10051;40.294;-3.754;2023-04-01T08:25:26;12.07;;;1.88;;
19782;SDS011;10051;40.294;-3.754;2023-04-01T08:28:09;10.20;;;1.83;;
19782;SDS011;10051;40.294;-3.754;2023-04-01T08:30:58;8.43;;;1.60;;
19782;SDS011;10051;40.294;-3.754;2023-04-01T08:33:31;11.73;;;1.60;;
19782;SDS011;10051;40.294;-3.754;2023-04-01T08:38:59;9.98;;;1.60;;
19782;SDS011;10051;40.294;-3.754;2023-04-01T08:44:19;10.80;;;2.90;;
19782;SDS011;10051;40.294;-3.754;2023-04-01T08:53:26;11.68;;;1.88;;
19782;SDS011;10051;40.294;-3.754;2023-04-01T09:01:57;8.23;;;1.85;;
19782;SDS011;10051;40.294;-3.754;2023-04-01T09:07:33;8.40;;;1.85;;
19782;SDS011;10051;40.294;-3.754;2023-04-01T09:10:34;9.02;;;1.83;;
19782;SDS011;10051;40.294;-3.754;2023-04-01T09:13:09;8.43;;;1.80;;
19782;SDS011;10051;40.294;-3.754;2023-04-01T09:21:27;11.70;;;2.03;;
19782;SDS011;10051;40.294;-3.754;2023-04-01T09:27:03;8.60;;;1.70;;
19782;SDS011;10051;40.294;-3.754;2023-04-01T09:29:38;13.27;;;1.77;;
19782;SDS011;10051;40.294;-3.754;2023-04-01T09:32:17;10.13;;;1.98;;
19782;SDS011;10051;40.294;-3.754;2023-04-01T09:37:53;7.65;;;1.50;;
19782;SDS011;10051;40.294;-3.754;2023-04-01T09:40:37;10.20;;;1.73;;
19782;SDS011;10051;40.294;-3.754;2023-04-01T09:46:37;10.35;;;1.85;;
19782;SDS011;10051;40.294;-3.754;2023-04-01T09:49:30;8.95;;;1.80;;
19782;SDS011;10051;40.294;-3.754;2023-04-01T10:05:18;6.22;;;1.45;;
19782;SDS011;10051;40.294;-3.754;2023-04-01T10:08:21;10.13;;;1.85;;
19782;SDS011;10051;40.294;-3.754;2023-04-01T10:44:32;6.57;;;1.50;;
19782;SDS011;10051;40.294;-3.754;2023-04-01T10:47:32;9.20;;;1.40;;
19782;SDS011;10051;40.294;-3.754;2023-04-01T10:59:11;7.03;;;1.45;;
19782;SDS011;10051;40.294;-3.754;2023-04-01T11:11:15;3.85;;;1.00;;
19782;SDS011;10051;40.294;-3.754;2023-04-01T11:33:30;7.75;;;1.33;;
19782;SDS011;10051;40.294;-3.754;2023-04-01T11:48:15;7.20;;;1.40;;
19782;SDS011;10051;40.294;-3.754;2023-04-01T11:54:55;5.07;;;1.38;;
19782;SDS011;10051;40.294;-3.754;2023-04-01T11:56:52;7.15;;;1.25;;
19782;SDS011;10051;40.294;-3.754;2023-04-01T11:59:32;6.32;;;1.45;;
19782;SDS011;10051;40.294;-3.754;2023-04-01T12:05:28;3.75;;;1.00;;
19782;SDS011;10051;40.294;-3.754;2023-04-01T12:08:21;6.65;;;1.38;;
19782;SDS011;10051;40.294;-3.754;2023-04-01T12:13:37;4.57;;;1.63;;
19782;SDS011;10051;40.294;-3.754;2023-04-01T12:25:26;6.57;;;1.38;;
19782;SDS011;10051;40.294;-3.754;2023-04-01T12:27:54;7.32;;;1.98;;
19782;SDS011;10051;40.294;-3.754;2023-04-01T13:16:41;8.82;;;1.27;;
19782;SDS011;10051;40.294;-3.754;2023-04-01T13:19:20;5.10;;;1.33;;
19782;SDS011;10051;40.294;-3.754;2023-04-01T13:24:39;6.38;;;1.23;;
19782;SDS011;10051;40.294;-3.754;2023-04-01T13:27:11;5.20;;;1.20;;
19782;SDS011;10051;40.294;-3.754;2023-04-01T13:29:46;9.10;;;1.25;;
19782;SDS011;10051;40.294;-3.754;2023-04-01T13:43:16;5.78;;;1.30;;
19782;SDS011;10051;40.294;-3.754;2023-04-01T13:46:02;5.25;;;1.30;;
19782;SDS011;10051;40.294;-3.754;2023-04-01T13:59:43;3.25;;;0.80;;
19782;SDS011;10051;40.294;-3.754;2023-04-01T14:02:35;4.97;;;1.00;;
19782;SDS011;10051;40.294;-3.754;2023-04-01T14:21:41;2.03;;;0.88;;
19782;SDS011;10051;40.294;-3.754;2023-04-01T14:24:29;1.92;;;0.85;;
19782;SDS011;10051;40.294;-3.754;2023-04-01T14:27:18;3.53;;;0.82;;
19782;SDS011;10051;40.294;-3.754;2023-04-01T14:32:34;3.72;;;0.80;;
19782;SDS011;10051;40.294;-3.754;2023-04-01T14:43:31;4.30;;;0.80;;
19782;SDS011;10051;40.294;-3.754;2023-04-01T14:52:16;2.38;;;0.82;;
19782;SDS011;10051;40.294;-3.754;2023-04-01T14:54:56;7.25;;;1.25;;
19782;SDS011;10051;40.294;-3.754;2023-04-01T14:57:27;3.50;;;1.00;;
19782;SDS011;10051;40.294;-3.754;2023-04-01T14:59:59;2.70;;;0.80;;
19782;SDS011;10051;40.294;-3.754;2023-04-01T15:02:31;9.20;;;0.98;;
19782;SDS011;10051;40.294;-3.754;2023-04-01T15:05:13;4.72;;;1.52;;
19782;SDS011;10051;40.294;-3.754;2023-04-01T15:07:50;1.95;;;0.80;;
19782;SDS011;10051;40.294;-3.754;2023-04-01T15:15:49;4.10;;;0.80;;
19782;SDS011;10051;40.294;-3.754;2023-04-01T15:24:26;2.88;;;0.70;;
19782;SDS011;10051;40.294;-3.754;2023-04-01T15:34:57;3.28;;;0.75;;
19782;SDS011;10051;40.294;-3.754;2023-04-01T15:46:15;3.78;;;0.70;;
19782;SDS011;10051;40.294;-3.754;2023-04-01T15:57:40;4.93;;;1.10;;
19782;SDS011;10051;40.294;-3.754;2023-04-01T16:00:05;6.07;;;1.23;;
19782;SDS011;10051;40.294;-3.754;2023-04-01T16:11:18;5.07;;;1.00;;
19782;SDS011;10051;40.294;-3.754;2023-04-01T16:14:11;2.72;;;0.80;;
19782;SDS011;10051;40.294;-3.754;2023-04-01T16:16:53;3.22;;;0.82;;
19782;SDS011;10051;40.294;-3.754;2023-04-01T16:25:01;4.20;;;0.80;;
19782;SDS011;10051;40.294;-3.754;2023-04-01T16:27:35;3.53;;;0.73;;
19782;SDS011;10051;40.294;-3.754;2023-04-01T16:33:00;3.88;;;0.75;;
19782;SDS011;10051;40.294;-3.754;2023-04-01T16:43:54;3.97;;;0.70;;
19782;SDS011;10051;40.294;-3.754;2023-04-01T16:49:04;2.95;;;0.80;;
19782;SDS011;10051;40.294;-3.754;2023-04-01T16:56:55;2.47;;;0.70;;
19782;SDS011;10051;40.294;-3.754;2023-04-01T17:02:10;1.92;;;0.60;;
19782;SDS011;10051;40.294;-3.754;2023-04-01T17:18:26;4.03;;;0.70;;
19782;SDS011;10051;40.294;-3.754;2023-04-01T17:20:59;5.38;;;0.60;;
19782;SDS011;10051;40.294;-3.754;2023-04-01T17:23:34;3.58;;;0.50;;
19782;SDS011;10051;40.294;-3.754;2023-04-01T17:29:04;2.30;;;0.70;;
19782;SDS011;10051;40.294;-3.754;2023-04-01T17:37:29;4.20;;;0.90;;
19782;SDS011;10051;40.294;-3.754;2023-04-01T17:43:08;4.28;;;0.77;;
19782;SDS011;10051;40.294;-3.754;2023-04-01T17:45:53;5.20;;;0.60;;
19782;SDS011;10051;40.294;-3.754;2023-04-01T17:53:58;2.55;;;0.52;;
19782;SDS011;10051;40.294;-3.754;2023-04-01T17:56:52;5.53;;;0.63;;
19782;SDS011;10051;40.294;-3.754;2023-04-01T17:59:38;3.35;;;0.60;;
19782;SDS011;10051;40.294;-3.754;2023-04-01T18:07:55;2.50;;;0.70;;
19782;SDS011;10051;40.294;-3.754;2023-04-01T18:13:32;1.55;;;0.60;;
19782;SDS011;10051;40.294;-3.754;2023-04-01T18:19:14;2.20;;;0.80;;
19782;SDS011;10051;40.294;-3.754;2023-04-01T18:21:54;3.80;;;0.77;;
19782;SDS011;10051;40.294;-3.754;2023-04-01T18:26:59;2.55;;;0.60;;
19782;SDS011;10051;40.294;-3.754;2023-04-01T18:29:36;1.45;;;0.57;;
19782;SDS011;10051;40.294;-3.754;2023-04-01T18:32:17;3.67;;;0.82;;
19782;SDS011;10051;40.294;-3.754;2023-04-01T18:34:55;3.40;;;0.70;;
19782;SDS011;10051;40.294;-3.754;2023-04-01T18:37:28;2.63;;;0.65;;
19782;SDS011;10051;40.294;-3.754;2023-04-01T18:45:43;2.15;;;0.63;;
19782;SDS011;10051;40.294;-3.754;2023-04-01T18:51:01;3.60;;;0.70;;
19782;SDS011;10051;40.294;-3.754;2023-04-01T18:53:50;1.83;;;0.80;;
19782;SDS011;10051;40.294;-3.754;2023-04-01T18:56:29;3.17;;;0.70;;
19782;SDS011;10051;40.294;-3.754;2023-04-01T19:04:19;3.85;;;0.70;;
19782;SDS011;10051;40.294;-3.754;2023-04-01T19:06:57;1.20;;;0.60;;
19782;SDS011;10051;40.294;-3.754;2023-04-01T19:09:25;3.05;;;1.00;;
19782;SDS011;10051;40.294;-3.754;2023-04-01T19:11:59;3.25;;;0.70;;
19782;SDS011;10051;40.294;-3.754;2023-04-01T19:20:05;0.95;;;0.50;;
19782;SDS011;10051;40.294;-3.754;2023-04-01T19:22:53;1.38;;;0.55;;
19782;SDS011;10051;40.294;-3.754;2023-04-01T19:26:11;1.73;;;0.50;;
19782;SDS011;10051;40.294;-3.754;2023-04-01T19:28:38;1.17;;;0.50;;
19782;SDS011;10051;40.294;-3.754;2023-04-01T19:36:27;1.42;;;0.60;;
19782;SDS011;10051;40.294;-3.754;2023-04-01T19:42:02;1.55;;;0.70;;
19782;SDS011;10051;40.294;-3.754;2023-04-01T19:44:56;5.65;;;0.70;;
19782;SDS011;10051;40.294;-3.754;2023-04-01T19:53:13;1.70;;;0.63;;
19782;SDS011;10051;40.294;-3.754;2023-04-01T20:01:24;0.85;;;0.50;;
19782;SDS011;10051;40.294;-3.754;2023-04-01T20:04:03;3.28;;;0.60;;
19782;SDS011;10051;40.294;-3.754;2023-04-01T20:06:37;1.50;;;0.60;;
19782;SDS011;10051;40.294;-3.754;2023-04-01T20:15:00;1.38;;;0.60;;
19782;SDS011;10051;40.294;-3.754;2023-04-01T20:17:43;1.63;;;0.70;;
19782;SDS011;10051;40.294;-3.754;2023-04-01T20:25:18;1.25;;;0.60;;
19782;SDS011;10051;40.294;-3.754;2023-04-01T20:27:56;1.40;;;0.73;;
19782;SDS011;10051;40.294;-3.754;2023-04-01T20:30:40;2.58;;;0.60;;
19782;SDS011;10051;40.294;-3.754;2023-04-01T20:33:36;1.33;;;0.70;;
19782;SDS011;10051;40.294;-3.754;2023-04-01T20:41:34;1.40;;;0.80;;
19782;SDS011;10051;40.294;-3.754;2023-04-01T20:50:29;2.17;;;0.90;;
19782;SDS011;10051;40.294;-3.754;2023-04-01T20:53:20;3.70;;;0.85;;
19782;SDS011;10051;40.294;-3.754;2023-04-01T20:55:58;1.98;;;0.60;;
19782;SDS011;10051;40.294;-3.754;2023-04-01T20:58:37;3.13;;;0.70;;
19782;SDS011;10051;40.294;-3.754;2023-04-01T21:10:09;2.42;;;0.70;;
19782;SDS011;10051;40.294;-3.754;2023-04-01T21:18:39;2.08;;;0.80;;
19782;SDS011;10051;40.294;-3.754;2023-04-01T21:29:42;3.22;;;0.80;;
19782;SDS011;10051;40.294;-3.754;2023-04-01T21:35:08;2.13;;;0.70;;
19782;SDS011;10051;40.294;-3.754;2023-04-01T21:38:04;5.88;;;0.80;;
19782;SDS011;10051;40.294;-3.754;2023-04-01T21:40:42;2.00;;;0.98;;
19782;SDS011;10051;40.294;-3.754;2023-04-01T21:43:20;3.65;;;0.70;;
19782;SDS011;10051;40.294;-3.754;2023-04-01T21:48:58;3.45;;;0.95;;
19782;SDS011;10051;40.294;-3.754;2023-04-01T21:57:10;2.08;;;0.80;;
19782;SDS011;10051;40.294;-3.754;2023-04-01T22:15:40;3.63;;;0.80;;
19782;SDS011;10051;40.294;-3.754;2023-04-01T22:18:33;4.03;;;1.00;;
19782;SDS011;10051;40.294;-3.754;2023-04-01T22:21:07;3.72;;;0.90;;
19782;SDS011;10051;40.294;-3.754;2023-04-01T22:23:37;4.70;;;1.20;;
19782;SDS011;10051;40.294;-3.754;2023-04-01T22:26:15;2.25;;;1.00;;
19782;SDS011;10051;40.294;-3.754;2023-04-01T22:28:59;4.63;;;1.05;;
19782;SDS011;10051;40.294;-3.754;2023-04-01T22:31:44;6.18;;;1.20;;
19782;SDS011;10051;40.294;-3.754;2023-04-01T22:34:25;6.32;;;0.90;;
19782;SDS011;10051;40.294;-3.754;2023-04-01T22:50:20;2.47;;;1.00;;
19782;SDS011;10051;40.294;-3.754;2023-04-01T22:52:56;2.22;;;1.15;;
19782;SDS011;10051;40.294;-3.754;2023-04-01T22:55:30;3.38;;;1.10;;
19782;SDS011;10051;40.294;-3.754;2023-04-01T22:58:03;2.30;;;0.93;;
19782;SDS011;10051;40.294;-3.754;2023-04-01T23:00:43;3.38;;;1.10;;
19782;SDS011;10051;40.294;-3.754;2023-04-01T23:05:57;4.18;;;0.98;;
19782;SDS011;10051;40.294;-3.754;2023-04-01T23:11:09;2.70;;;1.10;;
19782;SDS011;10051;40.294;-3.754;2023-04-01T23:13:44;3.25;;;0.98;;
19782;SDS011;10051;40.294;-3.754;2023-04-01T23:16:20;4.60;;;1.20;;
19782;SDS011;10051;40.294;-3.754;2023-04-01T23:24:44;4.45;;;0.90;;
19782;SDS011;10051;40.294;-3.754;2023-04-01T23:38:16;2.72;;;0.90;;
19782;SDS011;10051;40.294;-3.754;2023-04-01T23:40:42;3.22;;;0.80;;
19782;SDS011;10051;40.294;-3.754;2023-04-01T23:43:41;3.10;;;0.80;;
19782;SDS011;10051;40.294;-3.754;2023-04-01T23:46:02;1.58;;;0.68;;
19782;SDS011;10051;40.294;-3.754;2023-04-01T23:48:33;1.45;;;0.68;;
19782;SDS011;10051;40.294;-3.754;2023-04-01T23:51:02;2.53;;;0.70;;
19782;SDS011;10051;40.294;-3.754;2023-04-01T23:53:29;1.25;;;0.73;;
19782;SDS011;10051;40.294;-3.754;2023-04-01T23:55:58;2.78;;;0.65;;
